Flight Track Log - Related Links

Times and Time Zones

All times are in EDT time to prevent confusion due to time zone crossing. See the DAL1903 flight status page for this flight to view local times or setup timezone preferences in your user account.

Time Position Orientation Groundspeed Altitude Reporting Facility
EDT Latitude Longitude Course Direction KTS MPH feet Rate Location/Type
Thu 11:29:02 AM 40.7500 -73.8333 252° West 169 194 2,000  Level New York TRACON
Thu 11:30:02 AM 40.7000 -73.8500 194° South 217 250 5,100 3,050 Climbing New York TRACON
Thu 11:31:00 AM 40.6249 -74.3002 244° Southwest  Level FlightAware Approximate
Thu 11:31:02 AM 40.6833 -73.9333 255° West 240 276 8,100  Level New York TRACON
Thu 11:32:00 AM 40.5737 -74.4459 246° West  Level FlightAware Approximate
Thu 11:32:02 AM 40.7167 -74.0000 303° West 266 306 10,500  Level New York TRACON
Thu 11:33:00 AM 40.5333 -74.5952 270° West  Level FlightAware Approximate
Thu 11:33:02 AM 40.7667 -74.1000 303° West 324 373 12,000  Level New York TRACON
Thu 11:34:00 AM 40.4822 -74.7379 252° West  Level FlightAware Approximate
Thu 11:35:22 AM 40.7911 -74.4028 276° West 381 438 16,600  Level New York Center
Thu 11:36:22 AM 40.7186 -74.5247 232° Southwest 381 438 17,000 446 Climbing New York Center
Thu 11:37:23 AM 40.6506 -74.6278 229° Southwest 400 460 17,500 1,230 Climbing New York Center
Thu 11:38:24 AM 40.5675 -74.7489 228° Southwest 421 484 19,500 1,835 Climbing New York Center
Thu 11:39:24 AM 40.4925 -74.8672 230° Southwest 426 490 21,200 1,729 Climbing New York Center
Thu 11:40:22 AM 40.4114 -74.9850 228° Southwest 431 496 22,900 1,795 Climbing New York Center
Thu 11:41:21 AM 40.3278 -75.1025 227° Southwest 436 502 24,700 1,950 Climbing New York Center
Thu 11:42:22 AM 40.2442 -75.2222 228° Southwest 442 509 26,800 1,918 Climbing New York Center
Thu 11:43:23 AM 40.1625 -75.3394 228° Southwest 447 514 28,600 1,636 Climbing New York Center
Thu 11:44:23 AM 40.0808 -75.4561 228° Southwest 447 514 30,100 1,450 Climbing New York Center
Thu 11:45:23 AM 39.9972 -75.5697 226° Southwest 447 514 31,500 942 Climbing New York Center
Thu 11:46:24 AM 39.9175 -75.6833 228° Southwest 442 509 32,000 298 Climbing New York Center
Thu 11:47:24 AM 39.8436 -75.7997 230° Southwest 437 503 32,100 615 Climbing New York Center
Thu 11:48:21 AM 39.7675 -75.9214 231° Southwest 437 503 33,200 559 Climbing New York Center
Thu 11:50:48 AM 39.5869 -76.2056 231° Southwest 427 491 34,000 232 Climbing Washington Center
Thu 11:51:48 AM 39.5136 -76.3150 229° Southwest 433 498 34,000  Level Washington Center
Thu 11:52:47 AM 39.4378 -76.4325 230° Southwest 433 498 34,000  Level Washington Center
Thu 11:53:47 AM 39.3514 -76.5578 228° Southwest 428 493 34,000  Level Washington Center
Thu 11:54:47 AM 39.2794 -76.6775 232° Southwest 428 493 34,000  Level Washington Center
Thu 11:55:48 AM 39.2033 -76.7942 230° Southwest 428 493 34,000  Level Washington Center
Thu 11:56:47 AM 39.1272 -76.9106 230° Southwest 428 493 34,000  Level Washington Center
Thu 11:57:47 AM 39.0678 -77.0031 230° Southwest 428 493 34,000  Level Washington Center
Thu 11:58:47 AM 38.9642 -77.1267 223° Southwest 428 493 34,000  Level Washington Center
Thu 11:59:47 AM 38.8731 -77.2233 220° Southwest 423 487 34,000  Level Washington Center
Thu 12:00:47 PM 38.7842 -77.3228 221° Southwest 428 493 34,000  Level Washington Center
Thu 12:01:47 PM 38.7036 -77.4111 221° Southwest 428 493 34,000  Level Washington Center
Thu 12:02:47 PM 38.6167 -77.5100 222° Southwest 428 493 34,000  Level Washington Center
Thu 12:03:47 PM 38.5275 -77.6061 220° Southwest 428 493 34,000  Level Washington Center
Thu 12:04:47 PM 38.4361 -77.7042 220° Southwest 428 493 34,000  Level Washington Center
Thu 12:05:47 PM 38.3469 -77.8022 221° Southwest 428 493 34,000  Level Washington Center
Thu 12:06:47 PM 38.2575 -77.8975 220° Southwest 428 493 34,000  Level Washington Center
Thu 12:07:47 PM 38.1658 -77.9925 219° Southwest 428 493 34,000  Level Washington Center
Thu 12:08:47 PM 38.0806 -78.0872 221° Southwest 428 493 34,000  Level Washington Center
Thu 12:09:47 PM 37.9889 -78.1869 221° Southwest 413 475 34,000  Level Washington Center
Thu 12:10:47 PM 37.8950 -78.2733 216° Southwest 413 475 34,000  Level Washington Center
Thu 12:11:47 PM 37.8014 -78.3592 216° Southwest 413 475 34,000  Level Washington Center
Thu 12:12:47 PM 37.7097 -78.4425 216° Southwest 418 481 34,000  Level Washington Center
Thu 12:13:47 PM 37.6244 -78.5206 216° Southwest 418 481 34,000  Level Washington Center
Thu 12:14:47 PM 37.5325 -78.6114 218° Southwest 418 481 34,000  Level Washington Center
Thu 12:15:48 PM 37.4406 -78.6967 216° Southwest 418 481 34,000  Level Washington Center
Thu 12:16:47 PM 37.3444 -78.7842 216° Southwest 418 481 34,000  Level Washington Center
Thu 12:17:48 PM 37.2525 -78.8692 216° Southwest 418 481 34,000  Level Washington Center
Thu 12:18:48 PM 37.1497 -78.9664 217° Southwest 423 487 34,000  Level Washington Center
Thu 12:19:48 PM 37.0575 -79.0533 217° Southwest 423 487 34,000 202 Level Washington Center
Thu 12:20:47 PM 36.9653 -79.1375 216° Southwest 423 487 34,400 450 Climbing Washington Center
Thu 12:21:48 PM 36.8731 -79.2242 217° Southwest 423 487 34,900 485 Climbing Washington Center
Thu 12:24:05 PM 36.6572 -79.4144 215° Southwest 417 480 36,000 335 Climbing Atlanta Center
Thu 12:25:05 PM 36.5686 -79.4972 217° Southwest 417 480 36,000  Level Atlanta Center
Thu 12:26:05 PM 36.4739 -79.5825 216° Southwest 417 480 36,000  Level Atlanta Center
Thu 12:27:05 PM 36.3828 -79.6650 216° Southwest 417 480 36,000  Level Atlanta Center
Thu 12:28:05 PM 36.2939 -79.7472 217° Southwest 417 480 36,000  Level Atlanta Center
Thu 12:29:05 PM 36.2111 -79.8211 216° Southwest 417 480 36,000  Level Atlanta Center
Thu 12:30:05 PM 36.1200 -79.9028 216° Southwest 417 480 36,000  Level Atlanta Center
Thu 12:31:05 PM 36.0267 -79.9847 215° Southwest 417 480 36,000  Level Atlanta Center
Thu 12:32:05 PM 35.9219 -80.0336 201° Southwest 410 472 36,000  Level Atlanta Center
Thu 12:33:05 PM 35.8050 -80.0906 202° Southwest 410 472 36,000  Level Atlanta Center
Thu 12:34:05 PM 35.7003 -80.1442 203° Southwest 410 472 36,000  Level Atlanta Center
Thu 12:35:05 PM 35.5914 -80.1978 202° Southwest 410 472 36,000  Level Atlanta Center
Thu 12:36:05 PM 35.4867 -80.2536 203° Southwest 416 479 36,000  Level Atlanta Center
Thu 12:37:05 PM 35.3758 -80.3097 202° Southwest 416 479 36,000  Level Atlanta Center
Thu 12:38:05 PM 35.2647 -80.3656 202° Southwest 421 484 36,000  Level Atlanta Center
Thu 12:39:05 PM 35.1558 -80.4214 203° Southwest 433 498 36,000  Level Atlanta Center
Thu 12:40:44 PM 34.9842 -80.5083 203° Southwest 445 512 36,000  Level Jacksonville Center
Thu 12:41:44 PM 34.8747 -80.5594 201° Southwest 450 518 36,000  Level Jacksonville Center
Thu 12:42:44 PM 34.7631 -80.6208 204° Southwest 430 495 36,000  Level Jacksonville Center
Thu 12:43:44 PM 34.6514 -80.6767 202° Southwest 435 501 36,000  Level Jacksonville Center
Thu 12:44:44 PM 34.5211 -80.7331 200° South 454 522 36,000  Level Jacksonville Center
Thu 12:45:44 PM 34.4031 -80.7964 204° Southwest 454 522 36,000  Level Jacksonville Center
Thu 12:46:44 PM 34.2933 -80.8392 198° South 447 514 36,000  Level Jacksonville Center
Thu 12:47:44 PM 34.1919 -80.8942 204° Southwest 437 503 36,000  Level Jacksonville Center
Thu 12:48:44 PM 34.0781 -80.9494 202° Southwest 442 509 36,000  Level Jacksonville Center
Thu 12:49:44 PM 33.9578 -81.0047 201° Southwest 447 514 36,000  Level Jacksonville Center
Thu 12:50:44 PM 33.8294 -81.0600 200° South 447 514 36,000 -50 Level Jacksonville Center
Thu 12:51:44 PM 33.7217 -81.1197 205° Southwest 452 520 35,900  Descending Jacksonville Center
Thu 12:52:44 PM 33.6036 -81.1769 202° Southwest 458 527 36,000 50 Climbing Jacksonville Center
Thu 12:53:44 PM 33.4875 -81.2364 203° Southwest 458 527 36,000  Level Jacksonville Center
Thu 12:54:44 PM 33.3692 -81.2933 202° Southwest 458 527 36,000  Level Jacksonville Center
Thu 12:55:44 PM 33.2511 -81.3550 204° Southwest 458 527 36,000  Level Jacksonville Center
Thu 12:56:44 PM 33.1306 -81.4117 201° Southwest 463 533 36,000  Level Jacksonville Center
Thu 12:57:44 PM 33.0122 -81.4706 203° Southwest 468 539 36,000  Level Jacksonville Center
Thu 12:58:44 PM 32.8942 -81.5294 203° Southwest 468 539 36,000  Level Jacksonville Center
Thu 12:59:44 PM 32.7778 -81.5856 202° Southwest 463 533 36,000  Level Jacksonville Center
Thu 01:00:44 PM 32.6489 -81.6467 202° Southwest 457 526 36,000  Level Jacksonville Center
Thu 01:01:44 PM 32.5347 -81.7047 203° Southwest 459 528 36,000  Level Jacksonville Center
Thu 01:02:44 PM 32.4142 -81.7631 202° Southwest 459 528 36,000  Level Jacksonville Center
Thu 01:03:44 PM 32.2978 -81.8186 202° Southwest 459 528 36,000  Level Jacksonville Center
Thu 01:04:44 PM 32.1894 -81.8689 201° Southwest 459 528 36,000  Level Jacksonville Center
Thu 01:05:44 PM 32.0586 -81.9292 201° Southwest 459 528 36,000  Level Jacksonville Center
Thu 01:06:44 PM 31.9400 -81.9842 201° Southwest 459 528 36,000  Level Jacksonville Center
Thu 01:07:44 PM 31.8317 -82.0294 200° South 454 522 36,000  Level Jacksonville Center
Thu 01:08:44 PM 31.6983 -82.0744 196° South 454 522 36,000  Level Jacksonville Center
Thu 01:09:44 PM 31.5772 -82.0903 186° South 467 537 36,000  Level Jacksonville Center
Thu 01:10:44 PM 31.4500 -82.1036 185° South 472 543 36,000  Level Jacksonville Center
Thu 01:11:44 PM 31.3206 -82.1167 185° South 472 543 36,000  Level Jacksonville Center
Thu 01:12:44 PM 31.1914 -82.1300 185° South 472 543 36,000  Level Jacksonville Center
Thu 01:13:44 PM 31.0619 -82.1408 184° South 472 543 36,000  Level Jacksonville Center
Thu 01:14:44 PM 30.9283 -82.1539 185° South 472 543 36,000  Level Jacksonville Center
Thu 01:15:44 PM 30.7989 -82.1669 185° South 478 550 36,000  Level Jacksonville Center
Thu 01:16:44 PM 30.6675 -82.1800 185° South 478 550 36,000  Level Jacksonville Center
Thu 01:17:44 PM 30.5278 -82.1883 183° South 478 550 36,000  Level Jacksonville Center
Thu 01:18:44 PM 30.3983 -82.2039 186° South 478 550 36,000  Level Jacksonville Center
Thu 01:19:44 PM 30.2669 -82.2167 185° South 473 544 36,000 -50 Level Jacksonville Center
Thu 01:20:44 PM 30.1394 -82.2272 184° South 473 544 35,900 -950 Descending Jacksonville Center
Thu 01:21:44 PM 30.0228 -82.2425 186° South 465 535 34,100 -1,850 Descending Jacksonville Center
Thu 01:22:44 PM 29.8911 -82.2553 185° South 465 535 32,200 -2,850 Descending Jacksonville Center
Thu 01:23:44 PM 29.7431 -82.2658 184° South 485 558 28,400 -2,650 Descending Jacksonville Center
Thu 01:24:44 PM 29.6072 -82.2572 177° South 485 558 26,900 -2,000 Descending Jacksonville Center
Thu 01:25:44 PM 29.4778 -82.2364 172° South 485 558 24,400 -2,300 Descending Jacksonville Center
Thu 01:26:44 PM 29.3544 -82.2206 174° South 467 537 22,300 -1,700 Descending Jacksonville Center
Thu 01:27:44 PM 29.2481 -82.2047 173° South 456 525 21,000 -1,500 Descending Jacksonville Center
Thu 01:28:44 PM 29.1289 -82.1889 173° South 443 510 19,300 -1,600 Descending Jacksonville Center
Thu 01:29:44 PM 29.0161 -82.1731 173° South 426 490 17,800 -1,500 Descending Jacksonville Center
Thu 01:30:44 PM 28.9053 -82.1550 172° South 415 478 16,300 -1,529 Descending Jacksonville Center
Thu 01:32:17 PM 28.7333 -82.1333 174° South 387 445 13,900 -1,373 Descending Tampa TRACON
Thu 01:33:17 PM 28.6167 -82.1167 173° South 377 434 12,800 -850 Descending Tampa TRACON
Thu 01:34:17 PM 28.5167 -82.1000 172° South 374 430 12,200 -600 Descending Tampa TRACON
Thu 01:35:17 PM 28.4167 -82.0833 172° South 366 421 11,600 -632 Descending Tampa TRACON
Thu 01:36:11 PM 28.3333 -82.0667 170° South 366 421 11,000 -316 Descending Tampa TRACON
Thu 01:37:11 PM 28.2333 -82.0500 172° South 363 418 11,000  Level Tampa TRACON
Thu 01:38:23 PM 28.1167 -82.0833 194° South 359 413 11,000 -450 Level Tampa TRACON
Thu 01:39:11 PM 28.0500 -82.1167 204° Southwest 319 367 10,100 -1,421 Descending Tampa TRACON
Thu 01:40:17 PM 27.9667 -82.1500 199° South 283 326 8,300 -1,526 Descending Tampa TRACON
Thu 01:41:05 PM 27.9000 -82.1667 192° South 278 320 7,200 -1,266 Descending Tampa TRACON
Thu 01:42:06 PM 27.8333 -82.2000 204° Southwest 263 303 6,000 -567 Descending Tampa TRACON
Thu 01:43:12 PM 27.7667 -82.2333 204° Southwest 238 274 6,000  Level Tampa TRACON
Thu 01:44:12 PM 27.7167 -82.2833 222° Southwest 219 252 6,000  Level Tampa TRACON
Thu 01:45:18 PM 27.6667 -82.3333 222° Southwest 220 253 6,000  Level Tampa TRACON
Thu 01:46:18 PM 27.6167 -82.3833 222° Southwest 222 255 6,000 -200 Level Tampa TRACON
Thu 01:47:18 PM 27.6000 -82.4500 254° West 225 259 5,600 -950 Descending Tampa TRACON
Thu 01:48:18 PM 27.6000 -82.5167 270° West 228 262 4,100 -800 Descending Tampa TRACON
Thu 01:49:18 PM 27.5833 -82.5833 254° West 229 264 4,000 -198 Descending Tampa TRACON
Thu 01:50:19 PM 27.5833 -82.6500 270° West 228 262 3,700 -898 Descending Tampa TRACON
Thu 01:51:25 PM 27.5500 -82.7167 241° Southwest 221 254 2,100 -850 Descending Tampa TRACON
Thu 01:52:19 PM 27.5167 -82.6833 138° Southeast 185 213 2,000 -53 Descending Tampa TRACON
Thu 01:53:19 PM 27.4833 -82.6500 138° Southeast 137 158 2,000  Level Tampa TRACON

Login

Don't have an account? Register now (free) for customized features, flight alerts, and more!